Meath Environmental Platform

Observations for Trim Patrick St

Time AQI Temp °C Hum % Pres Pa CO μg/m³ H₂S μg/m³ NO μg/m³ NO₂ μg/m³ O₃ μg/m³ SO₂ μg/m³ PM1 μg/m³ PM2.5 μg/m³ PM10 μg/m³
Sunday 2 August 2026
22:53 2 15.6 82 38,460 0.19 8.59 1.54 48.91 26.29 0 6.29 9.95 10.94
22:52 2 15.6 82 38,460 0.2 7.86 1.52 36.95 19.49 0 6.29 10.63 11.7
22:51 2 15.6 82 38,460 0.2 9.43 1.7 47.16 21.02 0 6.29 10.63 11.7
22:50 2 15.6 82 38,460 0.21 9.61 1.65 51.4 19 0 7.14 9.95 10.94
22:49 2 15.6 82 38,460 0.2 6.12 1.78 33.15 21.19 0 5.43 9.23 10.15
22:48 2 15.6 82 38,460 0.2 6.53 1.83 29.44 25.47 0 6.29 8.54 9.39
22:47 2 15.6 82 38,460 0.19 8.28 1.85 42.58 20.34 0 5.43 9.24 10.17
22:46 2 15.6 82 38,460 0.2 7.47 1.63 30.5 23.45 0 5.43 9.94 10.93
22:45 2 15.6 82 38,460 0.2 9.92 1.47 48.93 16.53 0 6.29 10.65 11.71
22:42 2 15.6 82 38,460 0.19 5.57 1.47 27.18 28.29 0 5.43 9.24 10.17
22:41 2 15.6 82 38,460 0.19 7.63 1.37 32.53 23.49 0 5.43 9.94 10.93
22:40 2 15.6 82 38,460 0.18 9.27 1.5 35.3 24.94 0 7.14 9.95 10.94
22:39 2 15.6 82 38,460 0.19 8.54 1.51 40.81 15.02 0 5.43 7.87 8.65
22:38 2 15.6 82 38,460 0.2 9.51 1.38 41.18 15.09 0 6.29 9.95 10.94
22:37 2 15.6 82 38,460 0.19 9.11 1.37 37.99 21.74 0 6.29 9.95 10.95
22:36 2 15.6 82 38,460 0.19 9.14 1.66 48.59 9.74 0 5.43 9.27 10.19
22:35 2 15.6 82 38,460 0.2 6.25 1.5 29.36 25.63 0 3.71 7.18 7.9
22:34 2 15.6 82 38,460 0.22 9.32 1.53 40.1 20.73 0 5.43 9.97 10.97
22:31 2 15.6 82 38,460 0.21 9.69 1.48 42.93 18.38 0 4.57 7.89 8.68
22:30 2 15.6 82 38,460 0.18 9.58 1.53 39.38 15.35 0 4.57 8.59 9.45